sensor_id;sensor_type;location;lat;lon;timestamp;P1;durP1;ratioP1;P2;durP2;ratioP2
57071;SDS011;42956;51.366;11.298;2023-06-14T00:01:37;3.70;;;2.53;;
57071;SDS011;42956;51.366;11.298;2023-06-14T00:04:07;3.00;;;2.42;;
57071;SDS011;42956;51.366;11.298;2023-06-14T00:06:38;3.13;;;2.17;;
57071;SDS011;42956;51.366;11.298;2023-06-14T00:09:08;3.70;;;2.50;;
57071;SDS011;42956;51.366;11.298;2023-06-14T00:11:42;4.00;;;2.28;;
57071;SDS011;42956;51.366;11.298;2023-06-14T00:14:12;4.60;;;2.15;;
57071;SDS011;42956;51.366;11.298;2023-06-14T00:16:42;5.63;;;2.53;;
57071;SDS011;42956;51.366;11.298;2023-06-14T00:19:12;9.43;;;3.17;;
57071;SDS011;42956;51.366;11.298;2023-06-14T00:21:43;8.02;;;2.83;;
57071;SDS011;42956;51.366;11.298;2023-06-14T00:24:14;2.95;;;2.20;;
57071;SDS011;42956;51.366;11.298;2023-06-14T00:26:46;5.35;;;2.30;;
57071;SDS011;42956;51.366;11.298;2023-06-14T00:29:16;3.97;;;2.65;;
57071;SDS011;42956;51.366;11.298;2023-06-14T00:31:46;12.05;;;2.40;;
57071;SDS011;42956;51.366;11.298;2023-06-14T00:34:16;3.25;;;2.45;;
57071;SDS011;42956;51.366;11.298;2023-06-14T00:36:46;2.92;;;2.63;;
57071;SDS011;42956;51.366;11.298;2023-06-14T00:39:16;6.55;;;2.38;;
57071;SDS011;42956;51.366;11.298;2023-06-14T00:41:48;4.35;;;2.38;;
57071;SDS011;42956;51.366;11.298;2023-06-14T00:44:18;2.83;;;2.60;;
57071;SDS011;42956;51.366;11.298;2023-06-14T00:46:48;7.18;;;2.88;;
57071;SDS011;42956;51.366;11.298;2023-06-14T00:49:18;4.05;;;2.60;;
57071;SDS011;42956;51.366;11.298;2023-06-14T00:51:49;8.63;;;2.42;;
57071;SDS011;42956;51.366;11.298;2023-06-14T00:54:19;8.55;;;2.88;;
57071;SDS011;42956;51.366;11.298;2023-06-14T00:56:51;3.30;;;2.25;;
57071;SDS011;42956;51.366;11.298;2023-06-14T00:59:21;3.10;;;2.33;;
57071;SDS011;42956;51.366;11.298;2023-06-14T01:01:51;2.92;;;2.20;;
57071;SDS011;42956;51.366;11.298;2023-06-14T01:04:21;2.03;;;1.83;;
57071;SDS011;42956;51.366;11.298;2023-06-14T01:06:52;4.65;;;2.72;;
57071;SDS011;42956;51.366;11.298;2023-06-14T01:09:31;3.70;;;2.47;;
57071;SDS011;42956;51.366;11.298;2023-06-14T01:12:09;3.78;;;2.20;;
57071;SDS011;42956;51.366;11.298;2023-06-14T01:14:41;2.17;;;1.92;;
57071;SDS011;42956;51.366;11.298;2023-06-14T01:17:11;4.65;;;2.25;;
57071;SDS011;42956;51.366;11.298;2023-06-14T01:19:43;6.88;;;2.00;;
57071;SDS011;42956;51.366;11.298;2023-06-14T01:22:14;2.20;;;1.98;;
57071;SDS011;42956;51.366;11.298;2023-06-14T01:24:47;2.83;;;2.15;;
57071;SDS011;42956;51.366;11.298;2023-06-14T01:27:17;3.20;;;2.47;;
57071;SDS011;42956;51.366;11.298;2023-06-14T01:29:48;2.63;;;1.80;;
57071;SDS011;42956;51.366;11.298;2023-06-14T01:32:18;4.70;;;2.33;;
57071;SDS011;42956;51.366;11.298;2023-06-14T01:34:48;7.85;;;2.30;;
57071;SDS011;42956;51.366;11.298;2023-06-14T01:37:18;4.38;;;2.38;;
57071;SDS011;42956;51.366;11.298;2023-06-14T01:39:51;4.68;;;2.63;;
57071;SDS011;42956;51.366;11.298;2023-06-14T01:42:22;3.05;;;2.50;;
57071;SDS011;42956;51.366;11.298;2023-06-14T01:44:52;5.22;;;2.40;;
57071;SDS011;42956;51.366;11.298;2023-06-14T01:47:23;5.18;;;2.70;;
57071;SDS011;42956;51.366;11.298;2023-06-14T01:49:53;5.15;;;2.50;;
57071;SDS011;42956;51.366;11.298;2023-06-14T01:52:23;3.20;;;2.40;;
57071;SDS011;42956;51.366;11.298;2023-06-14T01:54:57;9.23;;;2.55;;
57071;SDS011;42956;51.366;11.298;2023-06-14T01:57:28;5.40;;;2.75;;
57071;SDS011;42956;51.366;11.298;2023-06-14T01:59:59;4.32;;;2.33;;
57071;SDS011;42956;51.366;11.298;2023-06-14T02:02:30;4.25;;;2.65;;
57071;SDS011;42956;51.366;11.298;2023-06-14T02:05:00;2.80;;;2.50;;
57071;SDS011;42956;51.366;11.298;2023-06-14T02:07:30;9.48;;;2.55;;
57071;SDS011;42956;51.366;11.298;2023-06-14T02:10:03;6.18;;;2.72;;
57071;SDS011;42956;51.366;11.298;2023-06-14T02:12:33;3.83;;;2.38;;
57071;SDS011;42956;51.366;11.298;2023-06-14T02:15:03;2.58;;;2.33;;
57071;SDS011;42956;51.366;11.298;2023-06-14T02:17:34;3.50;;;2.25;;
57071;SDS011;42956;51.366;11.298;2023-06-14T02:20:04;4.10;;;2.30;;
57071;SDS011;42956;51.366;11.298;2023-06-14T02:22:35;7.85;;;2.25;;
57071;SDS011;42956;51.366;11.298;2023-06-14T02:25:07;4.47;;;2.40;;
57071;SDS011;42956;51.366;11.298;2023-06-14T02:27:38;3.03;;;2.55;;
57071;SDS011;42956;51.366;11.298;2023-06-14T02:30:08;2.53;;;2.33;;
57071;SDS011;42956;51.366;11.298;2023-06-14T02:32:38;7.20;;;2.58;;
57071;SDS011;42956;51.366;11.298;2023-06-14T02:35:09;5.07;;;2.55;;
57071;SDS011;42956;51.366;11.298;2023-06-14T02:37:40;4.90;;;2.50;;
57071;SDS011;42956;51.366;11.298;2023-06-14T02:40:13;2.80;;;2.35;;
57071;SDS011;42956;51.366;11.298;2023-06-14T02:42:43;2.10;;;1.90;;
57071;SDS011;42956;51.366;11.298;2023-06-14T02:45:13;2.75;;;2.20;;
57071;SDS011;42956;51.366;11.298;2023-06-14T02:47:43;3.08;;;2.47;;
57071;SDS011;42956;51.366;11.298;2023-06-14T02:50:13;3.72;;;2.78;;
57071;SDS011;42956;51.366;11.298;2023-06-14T02:52:43;5.07;;;2.53;;
57071;SDS011;42956;51.366;11.298;2023-06-14T02:55:16;2.53;;;2.13;;
57071;SDS011;42956;51.366;11.298;2023-06-14T02:57:47;6.03;;;2.88;;
57071;SDS011;42956;51.366;11.298;2023-06-14T03:00:18;2.95;;;2.63;;
57071;SDS011;42956;51.366;11.298;2023-06-14T03:02:48;4.90;;;2.40;;
57071;SDS011;42956;51.366;11.298;2023-06-14T03:05:18;6.47;;;2.67;;
57071;SDS011;42956;51.366;11.298;2023-06-14T03:07:49;4.55;;;2.60;;
57071;SDS011;42956;51.366;11.298;2023-06-14T03:10:23;4.63;;;2.60;;
57071;SDS011;42956;51.366;11.298;2023-06-14T03:12:56;3.60;;;2.45;;
57071;SDS011;42956;51.366;11.298;2023-06-14T03:15:26;3.20;;;2.10;;
57071;SDS011;42956;51.366;11.298;2023-06-14T03:17:56;2.38;;;2.17;;
57071;SDS011;42956;51.366;11.298;2023-06-14T03:20:26;3.55;;;2.15;;
57071;SDS011;42956;51.366;11.298;2023-06-14T03:23:00;3.80;;;2.70;;
57071;SDS011;42956;51.366;11.298;2023-06-14T03:25:33;3.40;;;2.22;;
57071;SDS011;42956;51.366;11.298;2023-06-14T03:28:05;3.83;;;2.10;;
57071;SDS011;42956;51.366;11.298;2023-06-14T03:30:35;5.65;;;2.63;;
57071;SDS011;42956;51.366;11.298;2023-06-14T03:33:05;3.05;;;2.20;;
57071;SDS011;42956;51.366;11.298;2023-06-14T03:35:35;5.25;;;2.45;;
57071;SDS011;42956;51.366;11.298;2023-06-14T03:38:05;3.90;;;2.72;;
57071;SDS011;42956;51.366;11.298;2023-06-14T03:40:38;3.47;;;2.65;;
57071;SDS011;42956;51.366;11.298;2023-06-14T03:43:08;3.33;;;2.78;;
57071;SDS011;42956;51.366;11.298;2023-06-14T03:45:37;4.40;;;2.88;;
57071;SDS011;42956;51.366;11.298;2023-06-14T03:48:08;3.08;;;2.42;;
57071;SDS011;42956;51.366;11.298;2023-06-14T03:50:38;4.93;;;2.83;;
57071;SDS011;42956;51.366;11.298;2023-06-14T03:53:09;2.22;;;2.03;;
57071;SDS011;42956;51.366;11.298;2023-06-14T03:55:42;2.90;;;2.60;;
57071;SDS011;42956;51.366;11.298;2023-06-14T03:58:15;4.78;;;2.22;;
57071;SDS011;42956;51.366;11.298;2023-06-14T04:00:45;3.25;;;2.53;;
57071;SDS011;42956;51.366;11.298;2023-06-14T04:03:14;3.55;;;2.63;;
57071;SDS011;42956;51.366;11.298;2023-06-14T04:05:46;6.37;;;3.13;;
57071;SDS011;42956;51.366;11.298;2023-06-14T04:08:17;5.00;;;2.83;;
57071;SDS011;42956;51.366;11.298;2023-06-14T04:10:49;8.30;;;2.90;;
57071;SDS011;42956;51.366;11.298;2023-06-14T04:13:19;3.17;;;2.53;;
57071;SDS011;42956;51.366;11.298;2023-06-14T04:15:49;3.25;;;2.70;;
57071;SDS011;42956;51.366;11.298;2023-06-14T04:18:19;5.28;;;2.83;;
57071;SDS011;42956;51.366;11.298;2023-06-14T04:20:50;3.28;;;2.38;;
57071;SDS011;42956;51.366;11.298;2023-06-14T04:23:21;8.90;;;2.95;;
57071;SDS011;42956;51.366;11.298;2023-06-14T04:25:54;4.13;;;2.33;;
57071;SDS011;42956;51.366;11.298;2023-06-14T04:28:29;5.43;;;2.95;;
57071;SDS011;42956;51.366;11.298;2023-06-14T04:30:58;2.55;;;2.35;;
57071;SDS011;42956;51.366;11.298;2023-06-14T04:33:29;6.53;;;3.58;;
57071;SDS011;42956;51.366;11.298;2023-06-14T04:35:59;2.95;;;2.50;;
57071;SDS011;42956;51.366;11.298;2023-06-14T04:38:30;4.55;;;2.50;;
57071;SDS011;42956;51.366;11.298;2023-06-14T04:41:04;3.08;;;2.55;;
57071;SDS011;42956;51.366;11.298;2023-06-14T04:43:38;2.90;;;2.58;;
57071;SDS011;42956;51.366;11.298;2023-06-14T04:46:10;5.60;;;2.92;;
57071;SDS011;42956;51.366;11.298;2023-06-14T04:48:41;5.07;;;2.95;;
57071;SDS011;42956;51.366;11.298;2023-06-14T04:51:12;4.57;;;2.92;;
57071;SDS011;42956;51.366;11.298;2023-06-14T04:53:43;3.42;;;2.65;;
57071;SDS011;42956;51.366;11.298;2023-06-14T04:56:16;3.70;;;2.97;;
57071;SDS011;42956;51.366;11.298;2023-06-14T04:58:46;4.38;;;3.40;;
57071;SDS011;42956;51.366;11.298;2023-06-14T05:01:16;3.65;;;3.28;;
57071;SDS011;42956;51.366;11.298;2023-06-14T05:03:46;5.35;;;2.72;;
57071;SDS011;42956;51.366;11.298;2023-06-14T05:06:16;8.50;;;3.17;;
57071;SDS011;42956;51.366;11.298;2023-06-14T05:08:46;4.47;;;2.58;;
57071;SDS011;42956;51.366;11.298;2023-06-14T05:11:19;4.88;;;3.13;;
57071;SDS011;42956;51.366;11.298;2023-06-14T05:13:50;9.20;;;3.17;;
57071;SDS011;42956;51.366;11.298;2023-06-14T05:16:24;5.95;;;2.92;;
57071;SDS011;42956;51.366;11.298;2023-06-14T05:18:56;5.68;;;3.67;;
57071;SDS011;42956;51.366;11.298;2023-06-14T05:21:26;5.88;;;3.70;;
57071;SDS011;42956;51.366;11.298;2023-06-14T05:23:55;5.03;;;3.28;;
57071;SDS011;42956;51.366;11.298;2023-06-14T05:26:28;15.40;;;3.38;;
57071;SDS011;42956;51.366;11.298;2023-06-14T05:28:58;3.97;;;2.88;;
57071;SDS011;42956;51.366;11.298;2023-06-14T05:31:28;4.03;;;3.45;;
57071;SDS011;42956;51.366;11.298;2023-06-14T05:33:58;8.73;;;3.45;;
57071;SDS011;42956;51.366;11.298;2023-06-14T05:36:28;4.75;;;3.28;;
57071;SDS011;42956;51.366;11.298;2023-06-14T05:38:58;3.22;;;2.75;;
57071;SDS011;42956;51.366;11.298;2023-06-14T05:41:32;4.97;;;2.78;;
57071;SDS011;42956;51.366;11.298;2023-06-14T05:44:02;5.18;;;2.92;;
57071;SDS011;42956;51.366;11.298;2023-06-14T05:46:32;3.72;;;3.13;;
57071;SDS011;42956;51.366;11.298;2023-06-14T05:49:01;5.20;;;3.20;;
57071;SDS011;42956;51.366;11.298;2023-06-14T05:51:32;4.35;;;2.78;;
57071;SDS011;42956;51.366;11.298;2023-06-14T05:54:02;5.88;;;3.15;;
57071;SDS011;42956;51.366;11.298;2023-06-14T05:56:34;3.67;;;2.67;;
57071;SDS011;42956;51.366;11.298;2023-06-14T05:59:04;8.20;;;3.20;;
57071;SDS011;42956;51.366;11.298;2023-06-14T06:01:34;4.18;;;3.22;;
57071;SDS011;42956;51.366;11.298;2023-06-14T06:04:04;5.57;;;2.95;;
57071;SDS011;42956;51.366;11.298;2023-06-14T06:06:34;3.97;;;3.25;;
57071;SDS011;42956;51.366;11.298;2023-06-14T06:09:04;4.05;;;3.25;;
57071;SDS011;42956;51.366;11.298;2023-06-14T06:11:37;7.38;;;3.67;;
57071;SDS011;42956;51.366;11.298;2023-06-14T06:14:19;5.85;;;3.83;;
57071;SDS011;42956;51.366;11.298;2023-06-14T06:16:48;4.85;;;3.70;;
57071;SDS011;42956;51.366;11.298;2023-06-14T06:19:19;5.22;;;3.50;;
57071;SDS011;42956;51.366;11.298;2023-06-14T06:21:50;7.00;;;4.22;;
57071;SDS011;42956;51.366;11.298;2023-06-14T06:24:20;3.88;;;3.28;;
57071;SDS011;42956;51.366;11.298;2023-06-14T06:26:52;5.18;;;3.67;;
57071;SDS011;42956;51.366;11.298;2023-06-14T06:29:22;6.05;;;4.20;;
57071;SDS011;42956;51.366;11.298;2023-06-14T06:31:52;4.65;;;3.08;;
57071;SDS011;42956;51.366;11.298;2023-06-14T06:34:23;4.55;;;3.63;;
57071;SDS011;42956;51.366;11.298;2023-06-14T06:36:53;5.63;;;4.00;;
57071;SDS011;42956;51.366;11.298;2023-06-14T06:39:23;6.85;;;3.80;;
57071;SDS011;42956;51.366;11.298;2023-06-14T06:41:56;6.05;;;4.13;;
57071;SDS011;42956;51.366;11.298;2023-06-14T06:44:26;5.60;;;4.25;;
57071;SDS011;42956;51.366;11.298;2023-06-14T06:46:57;6.38;;;4.25;;
57071;SDS011;42956;51.366;11.298;2023-06-14T06:49:26;4.68;;;4.25;;
57071;SDS011;42956;51.366;11.298;2023-06-14T06:52:00;7.63;;;4.63;;
57071;SDS011;42956;51.366;11.298;2023-06-14T06:54:31;9.00;;;5.03;;
57071;SDS011;42956;51.366;11.298;2023-06-14T06:57:04;5.85;;;4.97;;
57071;SDS011;42956;51.366;11.298;2023-06-14T06:59:34;6.38;;;4.40;;
57071;SDS011;42956;51.366;11.298;2023-06-14T07:02:04;7.28;;;5.05;;
57071;SDS011;42956;51.366;11.298;2023-06-14T07:04:34;7.93;;;5.13;;
57071;SDS011;42956;51.366;11.298;2023-06-14T07:07:04;7.57;;;4.10;;
57071;SDS011;42956;51.366;11.298;2023-06-14T07:09:36;6.75;;;5.03;;
57071;SDS011;42956;51.366;11.298;2023-06-14T07:12:10;6.05;;;5.20;;
57071;SDS011;42956;51.366;11.298;2023-06-14T07:14:40;8.02;;;5.85;;
57071;SDS011;42956;51.366;11.298;2023-06-14T07:17:09;6.18;;;5.57;;
57071;SDS011;42956;51.366;11.298;2023-06-14T07:19:39;10.73;;;6.00;;
57071;SDS011;42956;51.366;11.298;2023-06-14T07:22:10;6.93;;;4.78;;
57071;SDS011;42956;51.366;11.298;2023-06-14T07:24:39;6.72;;;5.03;;
57071;SDS011;42956;51.366;11.298;2023-06-14T07:27:12;5.57;;;5.05;;
57071;SDS011;42956;51.366;11.298;2023-06-14T07:29:42;7.18;;;4.88;;
57071;SDS011;42956;51.366;11.298;2023-06-14T07:32:12;6.15;;;4.90;;
57071;SDS011;42956;51.366;11.298;2023-06-14T07:34:42;9.60;;;5.78;;
57071;SDS011;42956;51.366;11.298;2023-06-14T07:37:12;8.45;;;5.07;;
57071;SDS011;42956;51.366;11.298;2023-06-14T07:39:42;10.23;;;4.85;;
57071;SDS011;42956;51.366;11.298;2023-06-14T07:42:14;6.45;;;4.95;;
57071;SDS011;42956;51.366;11.298;2023-06-14T07:44:44;5.03;;;4.60;;
57071;SDS011;42956;51.366;11.298;2023-06-14T07:47:15;5.88;;;4.38;;
57071;SDS011;42956;51.366;11.298;2023-06-14T07:49:44;10.55;;;4.85;;
57071;SDS011;42956;51.366;11.298;2023-06-14T07:52:14;7.90;;;4.53;;
57071;SDS011;42956;51.366;11.298;2023-06-14T07:54:44;6.30;;;5.03;;
57071;SDS011;42956;51.366;11.298;2023-06-14T07:57:17;7.65;;;4.18;;
57071;SDS011;42956;51.366;11.298;2023-06-14T07:59:47;7.10;;;4.60;;
57071;SDS011;42956;51.366;11.298;2023-06-14T08:02:17;5.15;;;4.28;;
57071;SDS011;42956;51.366;11.298;2023-06-14T08:04:47;4.95;;;4.43;;
57071;SDS011;42956;51.366;11.298;2023-06-14T08:07:17;4.95;;;3.72;;
57071;SDS011;42956;51.366;11.298;2023-06-14T08:09:47;8.80;;;4.07;;
57071;SDS011;42956;51.366;11.298;2023-06-14T08:12:20;5.45;;;4.25;;
57071;SDS011;42956;51.366;11.298;2023-06-14T08:14:50;4.85;;;4.25;;
57071;SDS011;42956;51.366;11.298;2023-06-14T08:17:39;12.93;;;3.78;;
57071;SDS011;42956;51.366;11.298;2023-06-14T08:20:10;12.13;;;5.00;;
57071;SDS011;42956;51.366;11.298;2023-06-14T08:22:40;5.88;;;3.42;;
57071;SDS011;42956;51.366;11.298;2023-06-14T08:25:10;13.07;;;4.10;;
57071;SDS011;42956;51.366;11.298;2023-06-14T08:27:46;4.43;;;3.78;;
57071;SDS011;42956;51.366;11.298;2023-06-14T08:32:46;5.03;;;3.53;;
57071;SDS011;42956;51.366;11.298;2023-06-14T08:35:31;4.22;;;3.65;;
57071;SDS011;42956;51.366;11.298;2023-06-14T08:38:03;5.03;;;3.92;;
57071;SDS011;42956;51.366;11.298;2023-06-14T08:40:33;5.78;;;4.03;;
57071;SDS011;42956;51.366;11.298;2023-06-14T08:43:09;4.35;;;3.60;;
57071;SDS011;42956;51.366;11.298;2023-06-14T08:45:39;4.13;;;3.72;;
57071;SDS011;42956;51.366;11.298;2023-06-14T08:48:09;4.40;;;4.00;;
57071;SDS011;42956;51.366;11.298;2023-06-14T08:50:44;7.47;;;3.92;;
57071;SDS011;42956;51.366;11.298;2023-06-14T08:53:14;6.95;;;3.67;;
57071;SDS011;42956;51.366;11.298;2023-06-14T08:55:47;5.57;;;3.90;;
57071;SDS011;42956;51.366;11.298;2023-06-14T08:58:20;5.80;;;3.85;;
57071;SDS011;42956;51.366;11.298;2023-06-14T09:00:51;5.50;;;3.63;;
57071;SDS011;42956;51.366;11.298;2023-06-14T09:03:21;4.63;;;3.33;;
57071;SDS011;42956;51.366;11.298;2023-06-14T09:05:57;4.70;;;3.38;;
57071;SDS011;42956;51.366;11.298;2023-06-14T09:08:28;7.35;;;4.00;;
57071;SDS011;42956;51.366;11.298;2023-06-14T09:10:58;3.80;;;2.88;;
57071;SDS011;42956;51.366;11.298;2023-06-14T09:13:30;7.40;;;3.55;;
57071;SDS011;42956;51.366;11.298;2023-06-14T09:16:00;11.13;;;3.65;;
57071;SDS011;42956;51.366;11.298;2023-06-14T09:18:34;5.65;;;3.40;;
57071;SDS011;42956;51.366;11.298;2023-06-14T09:21:05;5.90;;;3.47;;
57071;SDS011;42956;51.366;11.298;2023-06-14T09:23:36;4.88;;;3.40;;
57071;SDS011;42956;51.366;11.298;2023-06-14T09:26:07;5.30;;;3.22;;
57071;SDS011;42956;51.366;11.298;2023-06-14T09:28:43;6.80;;;3.00;;
57071;SDS011;42956;51.366;11.298;2023-06-14T09:31:15;3.78;;;3.35;;
57071;SDS011;42956;51.366;11.298;2023-06-14T09:33:45;5.10;;;3.42;;
57071;SDS011;42956;51.366;11.298;2023-06-14T09:36:16;7.00;;;3.80;;
57071;SDS011;42956;51.366;11.298;2023-06-14T09:38:52;5.63;;;4.20;;
57071;SDS011;42956;51.366;11.298;2023-06-14T09:41:30;4.90;;;3.30;;
57071;SDS011;42956;51.366;11.298;2023-06-14T09:44:03;4.05;;;3.58;;
57071;SDS011;42956;51.366;11.298;2023-06-14T09:46:40;5.05;;;3.35;;
57071;SDS011;42956;51.366;11.298;2023-06-14T09:49:10;5.88;;;3.78;;
57071;SDS011;42956;51.366;11.298;2023-06-14T09:51:42;5.22;;;3.78;;
57071;SDS011;42956;51.366;11.298;2023-06-14T09:54:14;5.40;;;3.95;;
57071;SDS011;42956;51.366;11.298;2023-06-14T09:56:45;5.05;;;4.38;;
57071;SDS011;42956;51.366;11.298;2023-06-14T09:59:19;10.25;;;3.80;;
57071;SDS011;42956;51.366;11.298;2023-06-14T10:01:54;4.90;;;3.80;;
57071;SDS011;42956;51.366;11.298;2023-06-14T10:04:26;14.13;;;4.18;;
57071;SDS011;42956;51.366;11.298;2023-06-14T10:06:57;6.53;;;3.75;;
57071;SDS011;42956;51.366;11.298;2023-06-14T10:09:28;7.28;;;3.63;;
57071;SDS011;42956;51.366;11.298;2023-06-14T10:11:59;17.70;;;4.32;;
57071;SDS011;42956;51.366;11.298;2023-06-14T10:14:32;6.57;;;3.63;;
57071;SDS011;42956;51.366;11.298;2023-06-14T10:17:03;4.80;;;3.97;;
57071;SDS011;42956;51.366;11.298;2023-06-14T10:19:36;7.25;;;3.55;;
57071;SDS011;42956;51.366;11.298;2023-06-14T10:22:08;4.00;;;3.22;;
57071;SDS011;42956;51.366;11.298;2023-06-14T10:24:40;5.22;;;3.40;;
57071;SDS011;42956;51.366;11.298;2023-06-14T10:27:12;4.05;;;3.10;;
57071;SDS011;42956;51.366;11.298;2023-06-14T10:32:31;9.35;;;2.97;;
57071;SDS011;42956;51.366;11.298;2023-06-14T10:35:04;10.93;;;3.47;;
57071;SDS011;42956;51.366;11.298;2023-06-14T10:37:34;5.55;;;3.20;;
57071;SDS011;42956;51.366;11.298;2023-06-14T10:40:04;3.75;;;3.10;;
57071;SDS011;42956;51.366;11.298;2023-06-14T10:42:36;6.40;;;2.80;;
57071;SDS011;42956;51.366;11.298;2023-06-14T10:45:07;3.40;;;2.80;;
57071;SDS011;42956;51.366;11.298;2023-06-14T10:47:45;3.92;;;2.80;;
57071;SDS011;42956;51.366;11.298;2023-06-14T10:50:27;4.53;;;3.50;;
57071;SDS011;42956;51.366;11.298;2023-06-14T10:52:57;3.85;;;3.05;;
57071;SDS011;42956;51.366;11.298;2023-06-14T10:55:27;9.05;;;3.38;;
57071;SDS011;42956;51.366;11.298;2023-06-14T10:58:04;8.18;;;2.83;;
57071;SDS011;42956;51.366;11.298;2023-06-14T11:00:34;2.88;;;2.67;;
57071;SDS011;42956;51.366;11.298;2023-06-14T11:03:28;7.75;;;2.78;;
57071;SDS011;42956;51.366;11.298;2023-06-14T11:06:00;6.63;;;3.03;;
57071;SDS011;42956;51.366;11.298;2023-06-14T11:08:40;2.88;;;2.30;;
57071;SDS011;42956;51.366;11.298;2023-06-14T11:11:14;5.80;;;2.72;;
57071;SDS011;42956;51.366;11.298;2023-06-14T11:13:44;4.32;;;3.20;;
57071;SDS011;42956;51.366;11.298;2023-06-14T11:16:15;4.60;;;3.10;;
57071;SDS011;42956;51.366;11.298;2023-06-14T11:18:48;3.20;;;2.90;;
57071;SDS011;42956;51.366;11.298;2023-06-14T11:21:19;6.63;;;3.85;;
57071;SDS011;42956;51.366;11.298;2023-06-14T11:23:51;3.00;;;2.70;;
57071;SDS011;42956;51.366;11.298;2023-06-14T11:26:26;6.43;;;2.80;;
57071;SDS011;42956;51.366;11.298;2023-06-14T11:28:57;11.85;;;3.42;;
57071;SDS011;42956;51.366;11.298;2023-06-14T11:31:28;9.80;;;3.42;;
57071;SDS011;42956;51.366;11.298;2023-06-14T11:34:01;5.13;;;2.78;;
57071;SDS011;42956;51.366;11.298;2023-06-14T11:39:01;3.35;;;2.63;;
57071;SDS011;42956;51.366;11.298;2023-06-14T11:41:35;9.35;;;2.75;;
57071;SDS011;42956;51.366;11.298;2023-06-14T11:44:05;3.17;;;2.33;;
57071;SDS011;42956;51.366;11.298;2023-06-14T11:46:35;4.07;;;2.50;;
57071;SDS011;42956;51.366;11.298;2023-06-14T11:49:08;19.52;;;4.35;;
57071;SDS011;42956;51.366;11.298;2023-06-14T11:51:38;4.60;;;2.65;;
57071;SDS011;42956;51.366;11.298;2023-06-14T11:54:08;6.10;;;2.67;;
57071;SDS011;42956;51.366;11.298;2023-06-14T11:56:38;4.07;;;2.63;;
57071;SDS011;42956;51.366;11.298;2023-06-14T11:59:08;3.58;;;2.55;;
57071;SDS011;42956;51.366;11.298;2023-06-14T12:01:38;5.47;;;2.88;;
57071;SDS011;42956;51.366;11.298;2023-06-14T12:04:11;17.35;;;2.17;;
57071;SDS011;42956;51.366;11.298;2023-06-14T12:06:41;6.85;;;2.58;;
57071;SDS011;42956;51.366;11.298;2023-06-14T12:09:11;8.90;;;2.20;;
57071;SDS011;42956;51.366;11.298;2023-06-14T12:11:45;4.93;;;2.35;;
57071;SDS011;42956;51.366;11.298;2023-06-14T12:14:15;7.60;;;2.22;;
57071;SDS011;42956;51.366;11.298;2023-06-14T12:16:47;3.15;;;2.63;;
57071;SDS011;42956;51.366;11.298;2023-06-14T12:19:20;2.83;;;2.33;;
57071;SDS011;42956;51.366;11.298;2023-06-14T12:21:55;3.72;;;2.63;;
57071;SDS011;42956;51.366;11.298;2023-06-14T12:24:31;5.63;;;2.50;;
57071;SDS011;42956;51.366;11.298;2023-06-14T12:27:02;2.50;;;2.30;;
57071;SDS011;42956;51.366;11.298;2023-06-14T12:29:32;3.55;;;2.42;;
57071;SDS011;42956;51.366;11.298;2023-06-14T12:32:03;2.58;;;2.38;;
57071;SDS011;42956;51.366;11.298;2023-06-14T12:34:35;5.45;;;2.20;;
57071;SDS011;42956;51.366;11.298;2023-06-14T12:37:05;2.88;;;2.30;;
57071;SDS011;42956;51.366;11.298;2023-06-14T12:39:35;3.78;;;2.30;;
57071;SDS011;42956;51.366;11.298;2023-06-14T12:42:06;3.75;;;2.13;;
57071;SDS011;42956;51.366;11.298;2023-06-14T12:44:36;5.72;;;2.28;;
57071;SDS011;42956;51.366;11.298;2023-06-14T12:47:08;3.65;;;2.03;;
57071;SDS011;42956;51.366;11.298;2023-06-14T12:49:40;2.75;;;2.55;;
57071;SDS011;42956;51.366;11.298;2023-06-14T12:54:40;3.92;;;2.00;;
57071;SDS011;42956;51.366;11.298;2023-06-14T12:57:10;2.60;;;2.25;;
57071;SDS011;42956;51.366;11.298;2023-06-14T12:59:40;6.45;;;2.47;;
57071;SDS011;42956;51.366;11.298;2023-06-14T13:02:11;3.97;;;2.55;;
57071;SDS011;42956;51.366;11.298;2023-06-14T13:04:44;10.88;;;2.60;;
57071;SDS011;42956;51.366;11.298;2023-06-14T13:07:14;3.03;;;2.67;;
57071;SDS011;42956;51.366;11.298;2023-06-14T13:09:44;3.53;;;2.63;;
57071;SDS011;42956;51.366;11.298;2023-06-14T13:12:14;5.03;;;2.60;;
57071;SDS011;42956;51.366;11.298;2023-06-14T13:14:44;4.78;;;2.72;;
57071;SDS011;42956;51.366;11.298;2023-06-14T13:17:14;6.28;;;2.17;;
57071;SDS011;42956;51.366;11.298;2023-06-14T13:19:46;4.55;;;2.78;;
57071;SDS011;42956;51.366;11.298;2023-06-14T13:22:16;6.45;;;2.40;;
57071;SDS011;42956;51.366;11.298;2023-06-14T13:24:47;8.77;;;2.97;;
57071;SDS011;42956;51.366;11.298;2023-06-14T13:27:16;4.88;;;2.78;;
57071;SDS011;42956;51.366;11.298;2023-06-14T13:29:46;5.75;;;2.70;;
57071;SDS011;42956;51.366;11.298;2023-06-14T13:32:16;4.03;;;2.40;;
57071;SDS011;42956;51.366;11.298;2023-06-14T13:34:49;4.85;;;2.90;;
57071;SDS011;42956;51.366;11.298;2023-06-14T13:37:19;2.85;;;2.42;;
57071;SDS011;42956;51.366;11.298;2023-06-14T13:39:49;4.00;;;2.63;;
57071;SDS011;42956;51.366;11.298;2023-06-14T13:42:19;7.35;;;2.22;;
57071;SDS011;42956;51.366;11.298;2023-06-14T13:44:49;3.05;;;2.83;;
57071;SDS011;42956;51.366;11.298;2023-06-14T13:47:19;4.07;;;2.92;;
57071;SDS011;42956;51.366;11.298;2023-06-14T13:49:52;4.40;;;3.33;;
57071;SDS011;42956;51.366;11.298;2023-06-14T13:52:22;3.83;;;3.45;;
57071;SDS011;42956;51.366;11.298;2023-06-14T13:54:52;6.78;;;3.38;;
57071;SDS011;42956;51.366;11.298;2023-06-14T13:57:22;3.80;;;3.40;;
57071;SDS011;42956;51.366;11.298;2023-06-14T13:59:52;10.88;;;3.25;;
57071;SDS011;42956;51.366;11.298;2023-06-14T14:02:28;6.95;;;3.35;;
57071;SDS011;42956;51.366;11.298;2023-06-14T14:05:01;6.97;;;3.33;;
57071;SDS011;42956;51.366;11.298;2023-06-14T14:07:31;5.13;;;3.45;;
57071;SDS011;42956;51.366;11.298;2023-06-14T14:10:01;3.92;;;2.90;;
57071;SDS011;42956;51.366;11.298;2023-06-14T14:12:32;5.15;;;3.95;;
57071;SDS011;42956;51.366;11.298;2023-06-14T14:15:02;10.45;;;3.25;;
57071;SDS011;42956;51.366;11.298;2023-06-14T14:17:34;4.80;;;2.97;;
57071;SDS011;42956;51.366;11.298;2023-06-14T14:20:08;6.28;;;3.10;;
57071;SDS011;42956;51.366;11.298;2023-06-14T14:22:40;16.05;;;3.30;;
57071;SDS011;42956;51.366;11.298;2023-06-14T14:25:09;9.50;;;3.10;;
57071;SDS011;42956;51.366;11.298;2023-06-14T14:27:40;4.15;;;3.33;;
57071;SDS011;42956;51.366;11.298;2023-06-14T14:30:11;5.03;;;3.47;;
57071;SDS011;42956;51.366;11.298;2023-06-14T14:32:41;6.13;;;3.13;;
57071;SDS011;42956;51.366;11.298;2023-06-14T14:35:14;5.03;;;3.42;;
57071;SDS011;42956;51.366;11.298;2023-06-14T14:37:44;9.85;;;3.60;;
57071;SDS011;42956;51.366;11.298;2023-06-14T14:40:14;4.25;;;3.08;;
57071;SDS011;42956;51.366;11.298;2023-06-14T14:42:44;4.88;;;2.75;;
57071;SDS011;42956;51.366;11.298;2023-06-14T14:45:14;3.28;;;2.95;;
57071;SDS011;42956;51.366;11.298;2023-06-14T14:47:44;3.75;;;2.95;;
57071;SDS011;42956;51.366;11.298;2023-06-14T14:50:17;4.45;;;3.13;;
57071;SDS011;42956;51.366;11.298;2023-06-14T14:52:47;4.57;;;3.08;;
57071;SDS011;42956;51.366;11.298;2023-06-14T14:55:17;4.93;;;3.08;;
57071;SDS011;42956;51.366;11.298;2023-06-14T14:57:47;4.50;;;3.28;;
57071;SDS011;42956;51.366;11.298;2023-06-14T15:00:17;6.93;;;2.95;;
57071;SDS011;42956;51.366;11.298;2023-06-14T15:02:47;6.45;;;3.33;;
57071;SDS011;42956;51.366;11.298;2023-06-14T15:05:20;3.83;;;3.08;;
57071;SDS011;42956;51.366;11.298;2023-06-14T15:07:50;3.97;;;2.75;;